Time,TemperatureF,DewpointF,PressureIn,WindDirection,WindDirectionDegrees,WindSpeedMPH,WindSpeedGustMPH,Humidity,HourlyPrecipIn,Conditions,Clouds,dailyrainin,SolarRadiationWatts/m^2,SoftwareType,DateUTC
2013-01-13 00:02:00,2.0,-6.0,-100.00,SSE,165,1.0,2.0,68,0.00,,,0.01,0.000000,,2013-01-13 07:02:00,
2013-01-13 00:12:00,2.0,-6.0,-100.00,SSE,165,1.0,2.0,68,0.00,,,0.01,0.000000,,2013-01-13 07:12:00,
2013-01-13 00:33:00,0.0,-7.0,-100.00,NW,313,0.0,4.0,72,0.00,,,0.01,0.000000,,2013-01-13 07:33:00,
2013-01-13 00:42:00,0.0,-7.0,-100.00,NW,313,0.0,4.0,72,0.00,,,0.01,0.000000,,2013-01-13 07:42:00,
2013-01-13 00:52:00,0.0,-7.0,-100.00,NW,313,0.0,4.0,72,0.00,,,0.01,0.000000,,2013-01-13 07:52:00,
2013-01-13 01:02:00,0.0,-7.0,-100.00,NW,313,0.0,4.0,72,0.00,,,0.01,0.000000,,2013-01-13 08:02:00,
2013-01-13 01:12:00,0.0,-7.0,-100.00,NW,313,0.0,4.0,72,0.00,,,0.01,0.000000,,2013-01-13 08:12:00,
2013-01-13 01:32:00,-1.0,-7.0,-100.00,West,280,2.0,3.0,74,0.00,,,0.01,0.000000,,2013-01-13 08:32:00,
2013-01-13 01:42:00,-1.0,-7.0,-100.00,West,280,2.0,3.0,74,0.00,,,0.01,0.000000,,2013-01-13 08:42:00,
2013-01-13 01:53:00,-1.0,-7.0,-100.00,West,280,2.0,3.0,74,0.00,,,0.01,0.000000,,2013-01-13 08:53:00,
2013-01-13 02:02:00,-1.0,-7.0,-100.00,West,280,2.0,3.0,74,0.00,,,0.01,0.000000,,2013-01-13 09:02:00,
2013-01-13 02:12:00,-1.0,-7.0,-100.00,West,280,2.0,3.0,74,0.00,,,0.01,0.000000,,2013-01-13 09:12:00,
2013-01-13 02:32:00,-1.0,-7.0,-100.00,WSW,251,0.0,2.0,76,0.00,,,0.01,0.000000,,2013-01-13 09:32:00,
2013-01-13 02:42:00,-1.0,-7.0,-100.00,WSW,251,0.0,2.0,76,0.00,,,0.01,0.000000,,2013-01-13 09:42:00,
2013-01-13 02:52:00,-1.0,-7.0,-100.00,WSW,251,0.0,2.0,76,0.00,,,0.01,0.000000,,2013-01-13 09:52:00,
2013-01-13 03:02:00,-1.0,-7.0,-100.00,WSW,251,0.0,2.0,76,0.00,,,0.01,0.000000,,2013-01-13 10:02:00,
2013-01-13 03:12:00,-1.0,-7.0,-100.00,WSW,251,0.0,2.0,76,0.00,,,0.01,0.000000,,2013-01-13 10:12:00,
2013-01-13 03:32:00,-2.0,-7.0,-100.00,SE,144,1.0,2.0,77,0.00,,,0.01,0.000000,,2013-01-13 10:32:00,
2013-01-13 03:42:00,-2.0,-7.0,-100.00,SE,144,1.0,2.0,77,0.00,,,0.01,0.000000,,2013-01-13 10:42:00,
2013-01-13 03:53:00,-2.0,-7.0,-100.00,SE,144,1.0,2.0,77,0.00,,,0.01,0.000000,,2013-01-13 10:53:00,
2013-01-13 04:02:00,-2.0,-7.0,-100.00,SE,144,1.0,2.0,77,0.00,,,0.01,0.000000,,2013-01-13 11:02:00,
2013-01-13 04:12:00,-2.0,-7.0,-100.00,SE,144,1.0,2.0,77,0.00,,,0.01,0.000000,,2013-01-13 11:12:00,
2013-01-13 04:33:00,-3.0,-9.0,-100.00,NNW,339,0.0,4.0,75,0.00,,,0.01,0.000000,,2013-01-13 11:33:00,
2013-01-13 04:42:00,-3.0,-9.0,-100.00,NNW,339,0.0,4.0,75,0.00,,,0.01,0.000000,,2013-01-13 11:42:00,
2013-01-13 04:53:00,-3.0,-9.0,-100.00,NNW,339,0.0,4.0,75,0.00,,,0.01,0.000000,,2013-01-13 11:53:00,
2013-01-13 05:03:00,-3.0,-9.0,-100.00,NNW,339,0.0,4.0,75,0.00,,,0.01,0.000000,,2013-01-13 12:03:00,
2013-01-13 05:12:00,-3.0,-9.0,-100.00,NNW,339,0.0,4.0,75,0.00,,,0.01,0.000000,,2013-01-13 12:12:00,
2013-01-13 05:33:00,-3.0,-8.0,-100.00,NNW,329,0.0,2.0,78,0.00,,,0.01,0.000000,,2013-01-13 12:33:00,
2013-01-13 05:42:00,-3.0,-8.0,-100.00,NNW,329,0.0,2.0,78,0.00,,,0.01,0.000000,,2013-01-13 12:42:00,
2013-01-13 05:53:00,-3.0,-8.0,-100.00,NNW,329,0.0,2.0,78,0.00,,,0.01,0.000000,,2013-01-13 12:53:00,
2013-01-13 06:02:00,-3.0,-8.0,-100.00,NNW,329,0.0,2.0,78,0.00,,,0.01,0.000000,,2013-01-13 13:02:00,
2013-01-13 06:12:00,-3.0,-8.0,-100.00,NNW,329,0.0,2.0,78,0.00,,,0.01,0.000000,,2013-01-13 13:12:00,
2013-01-13 06:33:00,-4.0,-9.0,-100.00,WSW,241,1.0,2.0,80,0.00,,,0.01,0.000000,,2013-01-13 13:33:00,
2013-01-13 06:43:00,-4.0,-9.0,-100.00,WSW,241,1.0,2.0,80,0.00,,,0.01,0.000000,,2013-01-13 13:43:00,
2013-01-13 06:53:00,-4.0,-9.0,-100.00,WSW,241,1.0,2.0,80,0.00,,,0.01,0.000000,,2013-01-13 13:53:00,
2013-01-13 07:03:00,-4.0,-9.0,-100.00,WSW,241,1.0,2.0,80,0.00,,,0.01,0.000000,,2013-01-13 14:03:00,
2013-01-13 07:12:00,-4.0,-9.0,-100.00,WSW,241,1.0,2.0,80,0.00,,,0.01,0.000000,,2013-01-13 14:12:00,
2013-01-13 07:33:00,-3.0,-8.0,-100.00,SE,144,0.0,2.0,79,0.00,,,0.01,0.000000,,2013-01-13 14:33:00,
2013-01-13 07:43:00,-3.0,-8.0,-100.00,SE,144,0.0,2.0,79,0.00,,,0.01,0.000000,,2013-01-13 14:43:00,
2013-01-13 07:53:00,-3.0,-8.0,-100.00,SE,144,0.0,2.0,79,0.00,,,0.01,0.000000,,2013-01-13 14:53:00,
2013-01-13 08:03:00,-3.0,-8.0,-100.00,SE,144,0.0,2.0,79,0.00,,,0.01,0.000000,,2013-01-13 15:03:00,
2013-01-13 08:12:00,-3.0,-8.0,-100.00,SE,144,0.0,2.0,79,0.00,,,0.01,0.000000,,2013-01-13 15:12:00,
2013-01-13 08:33:00,-3.0,-9.0,-100.00,North,352,2.0,4.0,75,0.00,,,0.01,18.000000,,2013-01-13 15:33:00,
2013-01-13 08:43:00,-3.0,-9.0,-100.00,North,352,2.0,4.0,75,0.00,,,0.01,18.000000,,2013-01-13 15:43:00,
2013-01-13 08:53:00,-3.0,-9.0,-100.00,North,352,2.0,4.0,75,0.00,,,0.01,18.000000,,2013-01-13 15:53:00,
2013-01-13 09:03:00,-3.0,-9.0,-100.00,North,352,2.0,4.0,75,0.00,,,0.01,18.000000,,2013-01-13 16:03:00,
2013-01-13 09:12:00,-3.0,-9.0,-100.00,North,352,2.0,4.0,75,0.00,,,0.01,18.000000,,2013-01-13 16:12:00,
2013-01-13 09:33:00,2.0,-5.0,-100.00,North,352,0.0,3.0,72,0.00,,,0.01,87.000000,,2013-01-13 16:33:00,
2013-01-13 09:43:00,2.0,-5.0,-100.00,North,352,0.0,3.0,72,0.00,,,0.01,87.000000,,2013-01-13 16:43:00,
2013-01-13 09:53:00,2.0,-5.0,-100.00,North,352,0.0,3.0,72,0.00,,,0.01,87.000000,,2013-01-13 16:53:00,
2013-01-13 10:03:00,2.0,-5.0,-100.00,North,352,0.0,3.0,72,0.00,,,0.01,87.000000,,2013-01-13 17:03:00,
2013-01-13 10:12:00,2.0,-5.0,-100.00,North,352,0.0,3.0,72,0.00,,,0.01,87.000000,,2013-01-13 17:12:00,
2013-01-13 10:33:00,9.0,-3.0,-100.00,North,350,1.0,4.0,57,0.00,,,0.01,169.000000,,2013-01-13 17:33:00,
2013-01-13 10:43:00,9.0,-3.0,-100.00,North,350,1.0,4.0,57,0.00,,,0.01,169.000000,,2013-01-13 17:43:00,
2013-01-13 10:53:00,9.0,-3.0,-100.00,North,350,1.0,4.0,57,0.00,,,0.01,169.000000,,2013-01-13 17:53:00,
2013-01-13 11:03:00,9.0,-3.0,-100.00,North,350,1.0,4.0,57,0.00,,,0.01,169.000000,,2013-01-13 18:03:00,
2013-01-13 11:12:00,9.0,-3.0,-100.00,North,350,1.0,4.0,57,0.00,,,0.01,169.000000,,2013-01-13 18:12:00,
2013-01-13 11:33:00,8.0,-4.0,-100.00,NW,315,4.0,7.0,58,0.00,,,0.00,212.000000,,2013-01-13 18:33:00,
2013-01-13 11:43:00,8.0,-4.0,-100.00,NW,315,4.0,7.0,58,0.00,,,0.00,212.000000,,2013-01-13 18:43:00,
2013-01-13 11:53:00,8.0,-4.0,-100.00,NW,315,4.0,7.0,58,0.00,,,0.00,212.000000,,2013-01-13 18:53:00,
2013-01-13 12:02:00,8.0,-4.0,-100.00,NW,315,4.0,7.0,58,0.00,,,0.00,212.000000,,2013-01-13 19:02:00,
2013-01-13 12:12:00,8.0,-4.0,-100.00,NW,315,4.0,7.0,58,0.00,,,0.00,212.000000,,2013-01-13 19:12:00,
2013-01-13 12:43:00,10.0,-3.0,-100.00,North,357,3.0,6.0,54,0.00,,,0.00,215.000000,,2013-01-13 19:43:00,
2013-01-13 12:53:00,10.0,-3.0,-100.00,North,357,3.0,6.0,54,0.00,,,0.00,215.000000,,2013-01-13 19:53:00,
2013-01-13 13:03:00,10.0,-3.0,-100.00,North,357,3.0,6.0,54,0.00,,,0.00,215.000000,,2013-01-13 20:03:00,
2013-01-13 13:12:00,10.0,-3.0,-100.00,North,357,3.0,6.0,54,0.00,,,0.00,215.000000,,2013-01-13 20:12:00,
2013-01-13 13:33:00,15.0,-2.0,-100.00,NNE,20,1.0,6.0,47,0.00,,,0.00,272.000000,,2013-01-13 20:33:00,
2013-01-13 13:43:00,15.0,-2.0,-100.00,NNE,20,1.0,6.0,47,0.00,,,0.00,272.000000,,2013-01-13 20:43:00,
2013-01-13 13:53:00,15.0,-2.0,-100.00,NNE,20,1.0,6.0,47,0.00,,,0.00,272.000000,,2013-01-13 20:53:00,
2013-01-13 14:03:00,15.0,-2.0,-100.00,NNE,20,1.0,6.0,47,0.00,,,0.00,272.000000,,2013-01-13 21:03:00,
2013-01-13 14:12:00,15.0,-2.0,-100.00,NNE,20,1.0,6.0,47,0.00,,,0.00,272.000000,,2013-01-13 21:12:00,
2013-01-13 14:33:00,13.0,-3.0,-100.00,SSW,205,3.0,7.0,47,0.00,,,0.00,237.000000,,2013-01-13 21:33:00,
2013-01-13 14:43:00,13.0,-3.0,-100.00,SSW,205,3.0,7.0,47,0.00,,,0.00,237.000000,,2013-01-13 21:43:00,
2013-01-13 14:53:00,13.0,-3.0,-100.00,SSW,205,3.0,7.0,47,0.00,,,0.00,237.000000,,2013-01-13 21:53:00,
2013-01-13 15:02:00,13.0,-3.0,-100.00,SSW,205,3.0,7.0,47,0.00,,,0.00,237.000000,,2013-01-13 22:02:00,
2013-01-13 15:12:00,13.0,-3.0,-100.00,SSW,205,3.0,7.0,47,0.00,,,0.00,237.000000,,2013-01-13 22:12:00,
2013-01-13 16:33:00,9.0,-3.0,-100.00,SSE,154,3.0,9.0,58,-99.99,,,0.00,87.000000,,2013-01-13 23:33:00,
2013-01-13 16:43:00,9.0,-3.0,-100.00,SSE,154,3.0,9.0,58,-99.99,,,0.00,87.000000,,2013-01-13 23:43:00,
2013-01-13 16:53:00,9.0,-3.0,-100.00,SSE,154,3.0,9.0,58,-99.99,,,0.00,87.000000,,2013-01-13 23:53:00,
2013-01-13 17:03:00,9.0,-3.0,-100.00,SSE,154,3.0,9.0,58,-99.99,,,0.00,87.000000,,2013-01-14 00:03:00,
2013-01-13 17:12:00,9.0,-3.0,-100.00,SSE,154,3.0,9.0,58,-99.99,,,0.00,87.000000,,2013-01-14 00:12:00,
2013-01-13 17:43:00,7.0,-1.0,-100.00,South,183,1.0,4.0,68,0.00,,,0.00,23.000000,,2013-01-14 00:43:00,
2013-01-13 17:53:00,7.0,-1.0,-100.00,South,183,1.0,4.0,68,0.00,,,0.00,23.000000,,2013-01-14 00:53:00,
2013-01-13 18:03:00,7.0,-1.0,-100.00,South,183,1.0,4.0,68,0.00,,,0.00,23.000000,,2013-01-14 01:03:00,
2013-01-13 18:12:00,7.0,-1.0,-100.00,South,183,1.0,4.0,68,0.00,,,0.00,23.000000,,2013-01-14 01:12:00,
2013-01-13 18:42:00,7.0,-2.0,-100.00,SSW,209,4.0,8.0,67,0.00,,,0.00,0.000000,,2013-01-14 01:42:00,
2013-01-13 18:53:00,7.0,-2.0,-100.00,SSW,209,4.0,8.0,67,0.00,,,0.00,0.000000,,2013-01-14 01:53:00,
2013-01-13 19:03:00,7.0,-2.0,-100.00,SSW,209,4.0,8.0,67,0.00,,,0.00,0.000000,,2013-01-14 02:03:00,
2013-01-13 19:12:00,7.0,-2.0,-100.00,SSW,209,4.0,8.0,67,0.00,,,0.00,0.000000,,2013-01-14 02:12:00,
2013-01-13 19:43:00,5.0,-4.0,-100.00,West,260,3.0,9.0,65,0.00,,,0.00,0.000000,,2013-01-14 02:43:00,
2013-01-13 19:53:00,5.0,-4.0,-100.00,West,260,3.0,9.0,65,0.00,,,0.00,0.000000,,2013-01-14 02:53:00,
2013-01-13 20:02:00,5.0,-4.0,-100.00,West,260,3.0,9.0,65,0.00,,,0.00,0.000000,,2013-01-14 03:02:00,
2013-01-13 20:12:00,5.0,-4.0,-100.00,West,260,3.0,9.0,65,0.00,,,0.00,0.000000,,2013-01-14 03:12:00,
2013-01-13 20:33:00,2.0,-8.0,-100.00,NW,317,4.0,8.0,63,0.00,,,0.00,0.000000,,2013-01-14 03:33:00,
2013-01-13 20:43:00,2.0,-8.0,-100.00,NW,317,4.0,8.0,63,0.00,,,0.00,0.000000,,2013-01-14 03:43:00,
2013-01-13 20:53:00,2.0,-8.0,-100.00,NW,317,4.0,8.0,63,0.00,,,0.00,0.000000,,2013-01-14 03:53:00,
2013-01-13 21:02:00,2.0,-8.0,-100.00,NW,317,4.0,8.0,63,0.00,,,0.00,0.000000,,2013-01-14 04:02:00,
2013-01-13 21:12:00,2.0,-8.0,-100.00,NW,317,4.0,8.0,63,0.00,,,0.00,0.000000,,2013-01-14 04:12:00,
2013-01-13 21:32:00,1.0,-7.0,-100.00,NNW,343,1.0,7.0,68,0.00,,,0.00,0.000000,,2013-01-14 04:32:00,
2013-01-13 21:42:00,1.0,-7.0,-100.00,NNW,343,1.0,7.0,68,0.00,,,0.00,0.000000,,2013-01-14 04:42:00,
2013-01-13 21:53:00,1.0,-7.0,-100.00,NNW,343,1.0,7.0,68,0.00,,,0.00,0.000000,,2013-01-14 04:53:00,
2013-01-13 22:04:00,1.0,-7.0,-100.00,NNW,343,1.0,7.0,68,0.00,,,0.00,0.000000,,2013-01-14 05:04:00,
2013-01-13 22:12:00,1.0,-7.0,-100.00,NNW,343,1.0,7.0,68,0.00,,,0.00,0.000000,,2013-01-14 05:12:00,
2013-01-13 22:33:00,0.0,-7.0,-100.00,NNW,330,4.0,8.0,71,0.00,,,0.00,0.000000,,2013-01-14 05:33:00,
2013-01-13 22:43:00,0.0,-7.0,-100.00,NNW,330,4.0,8.0,71,0.00,,,0.00,0.000000,,2013-01-14 05:43:00,
2013-01-13 22:53:00,0.0,-7.0,-100.00,NNW,330,4.0,8.0,71,0.00,,,0.00,0.000000,,2013-01-14 05:53:00,
2013-01-13 23:03:00,0.0,-7.0,-100.00,NNW,330,4.0,8.0,71,0.00,,,0.00,0.000000,,2013-01-14 06:03:00,
2013-01-13 23:12:00,0.0,-7.0,-100.00,NNW,330,4.0,8.0,71,0.00,,,0.00,0.000000,,2013-01-14 06:12:00,
2013-01-13 23:33:00,-2.0,-8.0,-100.00,NNW,327,5.0,8.0,76,0.00,,,0.00,0.000000,,2013-01-14 06:33:00,
2013-01-13 23:43:00,-2.0,-8.0,-100.00,NNW,327,5.0,8.0,76,0.00,,,0.00,0.000000,,2013-01-14 06:43:00,
2013-01-13 23:53:00,-2.0,-8.0,-100.00,NNW,327,5.0,8.0,76,0.00,,,0.00,0.000000,,2013-01-14 06:53:00,